Time;durP1;ratioP1;P1;durP2;ratioP2;P2;SDS_P1;SDS_P2;PMS_P1;PMS_P2;Temp;Humidity;BMP_temperature;BMP_pressure;BME280_temperature;BME280_humidity;BME280_pressure;Samples;Min_cycle;Max_cycle;Signal;HPM_P1;HPM_P2
2021/01/12 00:00:31;;;;;;;13.10;11.27;;;;;;;-144.99;100.00;52554.09;5038222;28;20670;-76
2021/01/12 00:03:00;;;;;;;15.40;12.80;;;;;;;-144.99;100.00;52570.38;5044970;28;20657;-76
2021/01/12 00:05:26;;;;;;;14.57;11.87;;;;;;;-144.99;100.00;52574.47;5044555;28;20641;-75
2021/01/12 00:07:53;;;;;;;12.57;10.63;;;;;;;-144.99;100.00;52545.94;5032018;28;20660;-75
2021/01/12 00:10:20;;;;;;;13.97;11.80;;;;;;;-144.99;100.00;52533.69;5031117;28;21205;-77
2021/01/12 00:12:46;;;;;;;15.37;12.80;;;;;;;-144.99;100.00;52576.50;5031131;28;21232;-74
2021/01/12 00:15:13;;;;;;;13.60;11.33;;;;;;;-144.99;100.00;52501.09;5050205;28;20651;-75
2021/01/12 00:17:39;;;;;;;16.70;14.00;;;;;;;-144.99;100.00;52558.16;5049158;28;20656;-75
2021/01/12 00:20:08;;;;;;;20.80;13.10;;;;;;;-144.99;100.00;52537.78;5047284;28;20627;-75
2021/01/12 00:22:34;;;;;;;12.63;11.33;;;;;;;-144.99;100.00;52554.09;5050001;28;20667;-76
2021/01/12 00:25:01;;;;;;;13.97;11.63;;;;;;;-144.99;100.00;52525.56;5049483;28;20648;-77
2021/01/12 00:27:27;;;;;;;15.60;13.27;;;;;;;-144.99;100.00;52545.94;5048081;28;20688;-75
2021/01/12 00:29:53;;;;;;;14.03;12.60;;;;;;;-144.99;100.00;52531.66;5040274;28;20643;-77
2021/01/12 00:32:21;;;;;;;15.33;11.87;;;;;;;-144.99;100.00;52523.50;5047010;28;20955;-75
2021/01/12 00:34:49;;;;;;;15.30;10.90;;;;;;;-144.99;100.00;52568.34;5047604;28;20624;-77
2021/01/12 00:37:17;;;;;;;15.67;12.47;;;;;;;-144.99;100.00;52529.63;5032607;28;20644;-77
2021/01/12 00:39:43;;;;;;;14.40;11.80;;;;;;;-144.99;100.00;52537.78;5030735;28;21340;-77
2021/01/12 00:42:09;;;;;;;14.10;11.80;;;;;;;-144.99;100.00;52554.09;5050044;28;21010;-77
2021/01/12 00:44:36;;;;;;;14.03;11.53;;;;;;;-144.99;100.00;52533.69;5050042;28;21003;-77
2021/01/12 00:47:02;;;;;;;13.63;12.17;;;;;;;-144.99;100.00;52503.13;5045452;28;20716;-77
2021/01/12 00:49:28;;;;;;;11.93;9.07;;;;;;;-144.99;100.00;52574.47;5105378;22;21263;-77
2021/01/12 00:51:54;;;;;;;11.60;9.97;;;;;;;-144.99;100.00;52527.59;5084260;28;20619;-78
2021/01/12 00:54:23;;;;;;;13.83;10.67;;;;;;;-144.99;100.00;52505.16;5069536;28;20619;-77
2021/01/12 00:56:49;;;;;;;14.03;11.07;;;;;;;-144.99;100.00;52517.41;5068657;28;21073;-79
2021/01/12 00:59:16;;;;;;;12.00;9.67;;;;;;;-144.99;100.00;52562.25;5080373;28;20657;-77
2021/01/12 01:01:43;;;;;;;13.10;11.07;;;;;;;-144.99;100.00;52558.16;5081082;28;21279;-76
2021/01/12 01:04:10;;;;;;;11.77;9.43;;;;;;;-144.99;100.00;52537.78;5066952;28;20818;-77
2021/01/12 01:06:36;;;;;;;14.63;10.47;;;;;;;-144.99;100.00;52529.63;5069110;28;21417;-77
2021/01/12 01:09:03;;;;;;;10.07;7.17;;;;;;;-144.99;100.00;52513.31;5068945;28;20742;-76
2021/01/12 01:11:30;;;;;;;10.33;8.57;;;;;;;-144.99;100.00;52554.09;5069410;28;20627;-77
2021/01/12 01:13:57;;;;;;;10.67;9.13;;;;;;;-144.99;100.00;52566.31;5075987;28;20623;-77
2021/01/12 01:16:30;;;;;;;8.47;6.70;;;;;;;-144.99;100.00;52527.59;5069077;28;20269;-78
2021/01/12 01:18:57;;;;;;;9.10;7.07;;;;;;;-144.99;100.00;52550.00;5066013;28;21235;-78
2021/01/12 01:21:23;;;;;;;8.40;7.47;;;;;;;-144.99;100.00;52517.41;5068915;28;21251;-78
2021/01/12 01:23:49;;;;;;;9.80;8.77;;;;;;;-144.99;100.00;52554.09;5069027;28;21304;-77
2021/01/12 01:26:16;;;;;;;9.77;7.20;;;;;;;-144.99;100.00;52505.16;5068516;28;20722;-78
2021/01/12 01:28:43;;;;;;;8.30;6.73;;;;;;;-144.99;100.00;52527.59;5069940;28;20301;-78
2021/01/12 01:31:10;;;;;;;8.23;6.60;;;;;;;-144.99;100.00;52501.09;5081065;28;20656;-77
2021/01/12 01:33:36;;;;;;;12.83;6.97;;;;;;;-144.99;100.00;52541.84;5067345;28;20734;-77
2021/01/12 01:36:02;;;;;;;10.50;7.70;;;;;;;-144.99;100.00;52521.47;5068389;28;21240;-78
2021/01/12 01:38:28;;;;;;;8.57;6.00;;;;;;;-144.99;100.00;52537.78;5068604;28;21058;-77
2021/01/12 01:40:57;;;;;;;8.97;7.57;;;;;;;-144.99;100.00;52562.25;5074555;28;20239;-78
2021/01/12 01:43:23;;;;;;;8.93;5.73;;;;;;;-144.99;100.00;52519.44;5068222;28;20264;-76
2021/01/12 01:45:51;;;;;;;7.27;6.00;;;;;;;-144.99;100.00;52550.00;5068014;28;20594;-77
2021/01/12 01:48:17;;;;;;;6.77;5.43;;;;;;;-144.99;100.00;52517.41;5066489;28;20319;-78
2021/01/12 01:50:43;;;;;;;7.40;6.03;;;;;;;-144.99;100.00;52545.94;5069057;28;20204;-79
2021/01/12 01:53:10;;;;;;;7.83;5.13;;;;;;;-144.99;100.00;52525.56;5071916;28;20215;-76
2021/01/12 01:55:37;;;;;;;7.03;4.87;;;;;;;-144.99;100.00;52517.41;5071800;28;20208;-79
2021/01/12 01:58:04;;;;;;;8.57;5.83;;;;;;;-144.99;100.00;52517.41;5071186;28;20272;-78
2021/01/12 02:00:31;;;;;;;7.27;4.80;;;;;;;-144.99;100.00;52525.56;5084768;28;20269;-78
2021/01/12 02:03:07;;;;;;;5.20;4.10;;;;;;;-144.99;100.00;52554.09;5091358;28;20231;-77
2021/01/12 02:05:38;;;;;;;6.47;4.70;;;;;;;-144.99;100.00;52537.78;5070586;28;20198;-77
2021/01/12 02:08:08;;;;;;;6.10;4.23;;;;;;;-144.99;100.00;52541.84;5071369;28;20244;-76
2021/01/12 02:10:40;;;;;;;6.97;4.60;;;;;;;-144.99;100.00;52509.25;5071327;28;20205;-77
2021/01/12 02:13:13;;;;;;;5.43;4.40;;;;;;;-144.99;100.00;52550.00;5078547;28;20760;-78
2021/01/12 02:15:39;;;;;;;6.77;4.57;;;;;;;-144.99;100.00;52550.00;5071533;28;20299;-77
2021/01/12 02:18:07;;;;;;;9.97;5.47;;;;;;;-144.99;100.00;52566.31;5070580;28;20693;-75
2021/01/12 02:20:34;;;;;;;6.13;5.20;;;;;;;-144.99;100.00;52576.50;5071017;28;20700;-75
2021/01/12 02:23:06;;;;;;;5.63;3.97;;;;;;;-144.99;100.00;52505.16;5071813;28;20273;-76
2021/01/12 02:25:35;;;;;;;7.37;5.03;;;;;;;-144.99;100.00;52541.84;5071111;28;20725;-75
2021/01/12 02:28:03;;;;;;;6.07;5.03;;;;;;;-144.99;100.00;52533.69;5071563;28;21015;-75
2021/01/12 02:30:29;;;;;;;10.13;6.20;;;;;;;-144.99;100.00;52525.56;5082214;28;20228;-75
2021/01/12 02:32:56;;;;;;;8.23;5.50;;;;;;;-144.99;100.00;52568.34;5069938;28;20650;-76
2021/01/12 02:35:23;;;;;;;8.80;5.50;;;;;;;-144.99;100.00;52529.63;5070919;28;20657;-77
2021/01/12 02:37:50;;;;;;;8.97;5.13;;;;;;;-144.99;100.00;52543.91;5070270;28;21357;-75
2021/01/12 02:40:16;;;;;;;7.37;4.43;;;;;;;-144.99;100.00;52562.25;5083754;28;20614;-77
2021/01/12 02:42:44;;;;;;;7.10;5.30;;;;;;;-144.99;100.00;52529.63;5070909;28;20660;-74
2021/01/12 02:45:11;;;;;;;12.13;5.40;;;;;;;-144.99;100.00;52558.16;5070478;28;20781;-74
2021/01/12 02:47:37;;;;;;;7.47;4.77;;;;;;;-144.99;100.00;52529.63;5069924;28;20209;-74
2021/01/12 02:50:05;;;;;;;5.93;4.73;;;;;;;-144.99;100.00;52578.53;5068819;28;20279;-76
2021/01/12 02:52:31;;;;;;;7.57;5.37;;;;;;;-144.99;100.00;52558.16;5070626;28;21051;-73
2021/01/12 02:54:57;;;;;;;5.13;4.20;;;;;;;-144.99;100.00;52552.03;5070950;28;20223;-77
2021/01/12 02:57:23;;;;;;;9.50;5.80;;;;;;;-144.99;100.00;52566.31;5070440;28;20403;-74
2021/01/12 02:59:50;;;;;;;5.50;4.00;;;;;;;-144.99;100.00;52533.69;5083363;28;20208;-77
2021/01/12 03:02:16;;;;;;;6.13;4.97;;;;;;;-144.99;100.00;52521.47;5078053;28;20254;-77
2021/01/12 03:04:42;;;;;;;5.23;3.60;;;;;;;-144.99;100.00;52554.09;5068832;28;20312;-77
2021/01/12 03:07:09;;;;;;;5.47;4.03;;;;;;;-144.99;100.00;52550.00;5070877;28;20332;-76
2021/01/12 03:09:35;;;;;;;7.80;4.57;;;;;;;-144.99;100.00;52541.84;5069923;28;20235;-76
2021/01/12 03:12:01;;;;;;;7.63;4.70;;;;;;;-144.99;100.00;52529.63;5072774;28;20205;-76
2021/01/12 03:14:27;;;;;;;6.27;4.50;;;;;;;-144.99;100.00;52525.56;5075597;28;20611;-78
2021/01/12 03:16:54;;;;;;;6.27;4.73;;;;;;;-144.99;100.00;52558.16;5070497;28;20239;-76
2021/01/12 03:19:20;;;;;;;5.73;4.20;;;;;;;-144.99;100.00;52562.25;5067749;28;20742;-76
2021/01/12 03:21:48;;;;;;;6.07;4.43;;;;;;;-144.99;100.00;52517.41;5070371;28;20288;-75
2021/01/12 03:24:14;;;;;;;6.47;4.80;;;;;;;-144.99;100.00;52529.63;5070553;28;20698;-76
2021/01/12 03:26:40;;;;;;;3.23;2.87;;;;;;;-144.99;100.00;52554.09;5070150;28;20293;-76
2021/01/12 03:29:06;;;;;;;5.27;3.23;;;;;;;-144.99;100.00;52556.13;5071651;28;20244;-77
2021/01/12 03:31:35;;;;;;;4.53;3.17;;;;;;;-144.99;100.00;52525.56;5080960;28;20233;-77
2021/01/12 03:34:02;;;;;;;4.70;3.60;;;;;;;-144.99;100.00;52566.31;5081210;28;20719;-77
2021/01/12 03:36:28;;;;;;;4.57;2.90;;;;;;;-144.99;100.00;52513.31;5069630;28;20294;-77
2021/01/12 03:38:54;;;;;;;4.37;2.70;;;;;;;-144.99;100.00;52545.94;5082547;28;20655;-75
2021/01/12 03:41:20;;;;;;;3.57;2.90;;;;;;;-144.99;100.00;52550.00;5076034;28;20276;-77
2021/01/12 03:43:46;;;;;;;3.80;2.90;;;;;;;-144.99;100.00;52539.81;5069491;28;20224;-77
2021/01/12 03:46:12;;;;;;;4.00;2.63;;;;;;;-144.99;100.00;52545.94;5069333;28;20208;-77
2021/01/12 03:48:38;;;;;;;4.27;3.23;;;;;;;-144.99;100.00;52539.81;5067885;28;20238;-77
2021/01/12 03:51:05;;;;;;;4.13;2.53;;;;;;;-144.99;100.00;52511.28;5068907;28;20301;-78
2021/01/12 03:53:31;;;;;;;3.57;2.90;;;;;;;-144.99;100.00;52505.16;5070181;28;20224;-77
2021/01/12 03:55:58;;;;;;;4.57;2.97;;;;;;;-144.99;100.00;52505.16;5069555;28;20237;-77
2021/01/12 03:58:24;;;;;;;6.80;3.10;;;;;;;-144.99;100.00;52533.69;5071391;28;20311;-78
2021/01/12 04:00:50;;;;;;;3.93;2.77;;;;;;;-144.99;100.00;52501.09;5083465;28;20192;-76
2021/01/12 04:03:16;;;;;;;4.47;2.60;;;;;;;-144.99;100.00;52519.44;5074855;28;20272;-77
2021/01/12 04:05:43;;;;;;;2.87;2.30;;;;;;;-144.99;100.00;52521.47;5079608;28;20208;-78
2021/01/12 04:08:11;;;;;;;3.50;2.37;;;;;;;-144.99;100.00;52517.41;5069969;28;20663;-78
2021/01/12 04:10:38;;;;;;;3.60;1.90;;;;;;;-144.99;100.00;52537.78;5069423;28;20216;-78
2021/01/12 04:13:04;;;;;;;2.90;1.50;;;;;;;-144.99;100.00;52513.31;5076239;28;20228;-77
2021/01/12 04:15:30;;;;;;;5.87;3.87;;;;;;;-144.99;100.00;52505.16;5068725;28;21230;-76
2021/01/12 04:17:57;;;;;;;2.83;1.23;;;;;;;-144.99;100.00;52537.78;5068143;28;20252;-79
2021/01/12 04:20:23;;;;;;;4.10;1.70;;;;;;;-144.99;100.00;52562.25;5068159;28;20550;-79
2021/01/12 04:22:49;;;;;;;1.40;0.80;;;;;;;-144.99;100.00;52537.78;5070539;28;20238;-79
2021/01/12 04:25:16;;;;;;;3.60;1.40;;;;;;;-144.99;100.00;52566.31;5069890;28;20612;-79
2021/01/12 04:27:42;;;;;;;7.37;1.00;;;;;;;-144.99;100.00;52529.63;5069189;28;20279;-77
2021/01/12 04:30:09;;;;;;;5.63;1.40;;;;;;;-144.99;100.00;52537.78;5080101;28;20629;-77
2021/01/12 04:32:35;;;;;;;5.10;1.10;;;;;;;-144.99;100.00;52513.31;5089219;28;20204;-79
2021/01/12 04:35:02;;;;;;;2.00;0.83;;;;;;;-144.99;100.00;52539.81;5088027;28;20204;-79
2021/01/12 04:37:28;;;;;;;1.33;0.50;;;;;;;-144.99;100.00;52537.78;5070413;28;20228;-79
2021/01/12 04:39:54;;;;;;;4.63;0.93;;;;;;;-144.99;100.00;52537.78;5073561;28;20207;-79
2021/01/12 04:42:21;;;;;;;1.87;1.73;;;;;;;-144.99;100.00;52529.63;5070735;28;20642;-80
2021/01/12 04:44:47;;;;;;;1.13;0.63;;;;;;;-144.99;100.00;52578.53;5068787;28;21043;-78
2021/01/12 04:47:13;;;;;;;5.83;2.73;;;;;;;-144.99;100.00;52533.69;5069106;28;20634;-79
2021/01/12 04:49:39;;;;;;;0.60;0.37;;;;;;;-144.99;100.00;52533.69;5066309;28;20687;-79
2021/01/12 04:52:06;;;;;;;4.60;1.47;;;;;;;-144.99;100.00;52517.41;5069824;28;20623;-77
2021/01/12 04:54:33;;;;;;;3.80;1.17;;;;;;;-144.99;100.00;52556.13;5069331;28;20292;-77
2021/01/12 04:56:59;;;;;;;1.20;0.57;;;;;;;-144.99;100.00;52545.94;5069222;28;20659;-79
2021/01/12 04:59:29;;;;;;;2.20;1.07;;;;;;;-144.99;100.00;52517.41;5078866;28;21262;-79
2021/01/12 05:01:56;;;;;;;1.80;0.77;;;;;;;-144.99;100.00;52558.16;5083755;28;20653;-79
2021/01/12 05:04:22;;;;;;;3.47;1.10;;;;;;;-144.99;100.00;52554.09;5077426;28;20693;-80
2021/01/12 05:06:49;;;;;;;1.33;0.77;;;;;;;-144.99;100.00;52586.69;5070304;28;21006;-79
2021/01/12 05:09:20;;;;;;;7.60;1.30;;;;;;;-144.99;100.00;52554.09;5071744;28;20239;-79
2021/01/12 05:11:47;;;;;;;2.13;0.60;;;;;;;-144.99;100.00;52517.41;5076272;28;20725;-79
2021/01/12 05:14:15;;;;;;;5.53;1.63;;;;;;;-144.99;100.00;52543.91;5069326;28;20205;-79
2021/01/12 05:16:47;;;;;;;4.73;1.10;;;;;;;-144.99;100.00;52564.28;5068971;28;20627;-78
2021/01/12 05:19:20;;;;;;;3.70;0.97;;;;;;;-144.99;100.00;52558.16;5066177;28;20701;-73
2021/01/12 05:21:47;;;;;;;2.30;1.23;;;;;;;-144.99;100.00;52472.56;5068821;28;20623;-74
2021/01/12 05:24:17;;;;;;;2.33;1.10;;;;;;;-144.99;100.00;52517.41;5068723;28;20737;-73
2021/01/12 05:26:43;;;;;;;8.00;1.20;;;;;;;-144.99;100.00;52515.34;5071507;28;20201;-74
2021/01/12 05:29:10;;;;;;;4.30;1.63;;;;;;;-144.99;100.00;52517.41;5075232;28;21247;-75
2021/01/12 05:31:37;;;;;;;4.10;0.53;;;;;;;-144.99;100.00;52545.94;5083359;28;20292;-73
2021/01/12 05:34:06;;;;;;;2.97;0.60;;;;;;;-144.99;100.00;52545.94;5071200;28;20689;-74
2021/01/12 05:36:33;;;;;;;1.70;0.63;;;;;;;-144.99;100.00;52521.47;5072382;28;20710;-74
2021/01/12 05:39:00;;;;;;;0.63;0.40;;;;;;;-144.99;100.00;52558.16;5071773;28;20730;-74
2021/01/12 05:41:27;;;;;;;1.57;0.77;;;;;;;-144.99;100.00;52550.00;5078115;28;20607;-74
2021/01/12 05:43:56;;;;;;;3.30;0.70;;;;;;;-144.99;100.00;52545.94;5071775;28;20263;-75
2021/01/12 05:46:22;;;;;;;4.53;0.50;;;;;;;-144.99;100.00;52578.53;5071876;28;20213;-75
2021/01/12 05:48:48;;;;;;;1.03;0.30;;;;;;;-144.99;100.00;52570.38;5069637;28;20654;-75
2021/01/12 05:51:16;;;;;;;2.00;0.30;;;;;;;-144.99;100.00;52578.53;5070864;28;20655;-75
2021/01/12 05:54:03;;;;;;;2.23;0.77;;;;;;;-144.99;100.00;52550.00;5072079;28;20727;-75
2021/01/12 05:56:30;;;;;;;1.43;0.60;;;;;;;-144.99;100.00;52566.31;5071532;28;20618;-76
2021/01/12 05:58:57;;;;;;;2.67;0.73;;;;;;;-144.99;100.00;52550.00;5077706;28;21109;-74
2021/01/12 06:01:42;;;;;;;2.43;0.77;;;;;;;-144.99;100.00;52570.38;5086714;28;20618;-75
2021/01/12 06:04:10;;;;;;;4.97;0.70;;;;;;;-144.99;100.00;52550.00;5070664;28;20682;-75
2021/01/12 06:06:38;;;;;;;7.27;1.10;;;;;;;-144.99;100.00;52547.97;4018928;28;10001177;-75
2021/01/12 06:09:06;;;;;;;2.67;0.90;;;;;;;-144.99;100.00;52578.53;5067886;28;21117;-76
2021/01/12 06:11:34;;;;;;;4.00;0.80;;;;;;;-144.99;100.00;52541.84;5067863;28;20673;-75
2021/01/12 06:14:08;;;;;;;2.27;1.80;;;;;;;-144.99;100.00;52541.84;5075432;28;20615;-74
2021/01/12 06:16:36;;;;;;;2.67;0.47;;;;;;;-144.99;100.00;52580.59;5067218;28;20661;-74
2021/01/12 06:19:10;;;;;;;4.40;1.93;;;;;;;-144.99;100.00;52552.03;5064894;28;21248;-74
2021/01/12 06:21:50;;;;;;;4.03;2.43;;;;;;;-144.99;100.00;52594.84;5072192;28;20625;-74
2021/01/12 06:24:21;;;;;;;0.93;0.50;;;;;;;-144.99;100.00;52572.44;5085397;28;20748;-75
2021/01/12 06:26:51;;;;;;;1.47;0.60;;;;;;;-144.99;100.00;52582.63;5068085;28;20729;-75
2021/01/12 06:29:18;;;;;;;2.20;0.97;;;;;;;-144.99;100.00;52576.50;5070762;28;20781;-73
2021/01/12 06:31:48;;;;;;;2.43;0.90;;;;;;;-144.99;100.00;52578.53;5077583;28;21211;-73
2021/01/12 06:34:18;;;;;;;2.20;0.97;;;;;;;-144.99;100.00;52574.47;5079899;28;20619;-74
2021/01/12 06:36:51;;;;;;;2.03;0.73;;;;;;;-144.99;100.00;52529.63;5067251;28;20692;-75
2021/01/12 06:39:21;;;;;;;5.93;0.90;;;;;;;-144.99;100.00;52566.31;5067445;28;20770;-74
2021/01/12 06:41:49;;;;;;;2.03;0.80;;;;;;;-144.99;100.00;52566.31;5072428;28;20619;-74
2021/01/12 06:44:22;;;;;;;2.80;0.97;;;;;;;-144.99;100.00;52603.00;5067539;28;20698;-75
2021/01/12 06:46:53;;;;;;;5.37;2.37;;;;;;;-144.99;100.00;52541.84;5067996;28;20659;-76
2021/01/12 06:49:20;;;;;;;3.37;1.47;;;;;;;-144.99;100.00;52554.09;5096671;22;20849;-78
2021/01/12 06:52:00;;;;;;;7.33;1.53;;;;;;;-144.99;100.00;52584.66;5065902;28;21072;-78
2021/01/12 06:54:40;;;;;;;4.43;1.93;;;;;;;-144.99;100.00;52554.09;5054312;28;20975;-80
2021/01/12 06:57:07;;;;;;;4.57;1.10;;;;;;;-144.99;100.00;52556.13;5053399;28;20752;-78
2021/01/12 06:59:38;;;;;;;1.20;0.80;;;;;;;-144.99;100.00;52574.47;5066649;28;21097;-81
2021/01/12 07:02:20;;;;;;;2.53;1.43;;;;;;;-144.99;100.00;52578.53;5064098;28;21181;-79
2021/01/12 07:05:01;;;;;;;1.43;0.47;;;;;;;-144.99;100.00;52578.53;5052213;28;20650;-76
2021/01/12 07:07:30;;;;;;;6.07;3.53;;;;;;;-144.99;100.00;52570.38;5069241;28;20642;-76
2021/01/12 07:09:58;;;;;;;2.47;0.93;;;;;;;-144.99;100.00;52537.78;5068236;28;20697;-76
2021/01/12 07:12:26;;;;;;;4.17;1.27;;;;;;;-144.99;100.00;52556.13;5071867;28;20981;-76
2021/01/12 07:14:55;;;;;;;5.60;0.93;;;;;;;-144.99;100.00;52558.16;5050042;28;20620;-76
2021/01/12 07:17:29;;;;;;;2.67;0.87;;;;;;;-144.99;100.00;52527.59;5047965;28;20663;-75
2021/01/12 07:20:07;;;;;;;3.23;0.60;;;;;;;-144.99;100.00;52582.63;5046456;28;20720;-76
2021/01/12 07:22:35;;;;;;;2.70;0.77;;;;;;;-144.99;100.00;52584.66;5048070;28;21323;-76
2021/01/12 07:25:03;;;;;;;2.73;0.60;;;;;;;-144.99;100.00;52578.53;5048733;28;20678;-76
2021/01/12 07:27:29;;;;;;;2.73;1.10;;;;;;;-144.99;100.00;52570.38;5047445;28;20669;-75
2021/01/12 07:29:56;;;;;;;3.23;0.90;;;;;;;-144.99;100.00;52545.94;5056718;28;21030;-78
2021/01/12 07:32:30;;;;;;;4.90;1.47;;;;;;;-144.99;100.00;52545.94;5052848;28;21236;-76
2021/01/12 07:35:00;;;;;;;6.07;1.23;;;;;;;-144.99;100.00;52582.63;5059114;28;20633;-77
2021/01/12 07:37:32;;;;;;;3.30;0.80;;;;;;;-144.99;100.00;52590.78;5050038;28;20635;-76
2021/01/12 07:39:59;;;;;;;3.33;1.07;;;;;;;-144.99;100.00;52574.47;5052976;28;20647;-76
2021/01/12 07:42:26;;;;;;;2.63;1.33;;;;;;;-144.99;100.00;52539.81;5048431;28;20632;-76
2021/01/12 07:44:53;;;;;;;3.57;0.60;;;;;;;-144.99;100.00;52550.00;5047897;28;20674;-75
2021/01/12 07:47:20;;;;;;;6.33;0.90;;;;;;;-144.99;100.00;52562.25;5049330;28;20666;-74
2021/01/12 07:49:49;;;;;;;10.13;1.90;;;;;;;-144.99;100.00;52545.94;5045104;28;21469;-76
2021/01/12 07:52:17;;;;;;;3.73;1.10;;;;;;;-144.99;100.00;52568.34;5058660;28;20641;-77
2021/01/12 07:54:44;;;;;;;7.27;2.23;;;;;;;-144.99;100.00;52594.84;5053747;28;20650;-79
2021/01/12 07:57:12;;;;;;;5.80;1.13;;;;;;;-144.99;100.00;52578.53;5048254;28;20616;-77
2021/01/12 07:59:39;;;;;;;4.07;1.20;;;;;;;-144.99;100.00;52533.69;5058753;28;20666;-76
2021/01/12 08:02:06;;;;;;;3.90;1.27;;;;;;;-144.99;100.00;52578.53;5058047;28;20624;-76
2021/01/12 08:04:32;;;;;;;2.23;0.70;;;;;;;-144.99;100.00;52562.25;5045722;28;20867;-77
2021/01/12 08:06:59;;;;;;;7.27;1.33;;;;;;;-144.99;100.00;52603.00;5047953;28;21011;-74
2021/01/12 08:09:25;;;;;;;10.03;1.50;;;;;;;-144.99;100.00;52582.63;5047275;28;20656;-76
2021/01/12 08:11:58;;;;;;;1.63;0.80;;;;;;;-144.99;100.00;52566.31;5057231;28;20623;-78
2021/01/12 08:14:25;;;;;;;4.13;2.70;;;;;;;-144.99;100.00;52558.16;5053402;28;20666;-76
2021/01/12 08:16:53;;;;;;;7.30;2.57;;;;;;;-144.99;100.00;52566.31;5049428;28;20624;-79
2021/01/12 08:19:21;;;;;;;6.97;1.30;;;;;;;-144.99;100.00;52570.38;5061497;28;20647;-77
2021/01/12 08:21:48;;;;;;;10.70;2.00;;;;;;;-144.99;100.00;52562.25;5049236;28;20715;-79
2021/01/12 08:24:20;;;;;;;6.73;2.40;;;;;;;-144.99;100.00;52566.31;5049402;28;20682;-79
2021/01/12 08:26:46;;;;;;;9.00;3.63;;;;;;;-144.99;100.00;52572.44;5049455;28;20691;-78
2021/01/12 08:29:13;;;;;;;9.50;2.13;;;;;;;-144.99;100.00;52558.16;5064207;28;20670;-78
2021/01/12 08:31:46;;;;;;;7.70;1.60;;;;;;;-144.99;100.00;52529.63;5056837;28;20744;-76
2021/01/12 08:34:17;;;;;;;7.43;2.43;;;;;;;-144.99;100.00;52545.94;5046213;28;21312;-77
2021/01/12 08:36:44;;;;;;;7.60;2.53;;;;;;;-144.99;100.00;52570.38;5048306;28;21225;-75
2021/01/12 08:39:11;;;;;;;3.47;1.33;;;;;;;-144.99;100.00;52594.84;5047925;28;20656;-77
2021/01/12 08:41:41;;;;;;;4.07;1.83;;;;;;;-144.99;100.00;52533.69;5055864;28;20651;-76
2021/01/12 08:44:09;;;;;;;3.60;1.50;;;;;;;-144.99;100.00;52566.31;5047324;28;20702;-76
2021/01/12 08:46:35;;;;;;;2.27;1.33;;;;;;;-144.99;100.00;52541.84;5046215;28;21078;-76
2021/01/12 08:49:03;;;;;;;6.10;1.10;;;;;;;-144.99;100.00;52545.94;5044786;28;20667;-75
2021/01/12 08:51:32;;;;;;;6.73;1.10;;;;;;;-144.99;100.00;52578.53;5053108;28;20643;-77
2021/01/12 08:53:59;;;;;;;7.00;2.50;;;;;;;-144.99;100.00;52539.81;5068587;28;20611;-77
2021/01/12 08:56:26;;;;;;;6.33;1.10;;;;;;;-144.99;100.00;52552.03;5057087;28;20634;-77
2021/01/12 08:59:06;;;;;;;3.60;0.80;;;;;;;-144.99;100.00;52562.25;5054294;28;21529;-75
2021/01/12 09:01:32;;;;;;;5.93;1.30;;;;;;;-144.99;100.00;52529.63;5069234;28;20656;-78
2021/01/12 09:04:05;;;;;;;3.87;1.77;;;;;;;-144.99;100.00;52566.31;5053717;28;20630;-76
2021/01/12 09:06:31;;;;;;;3.47;1.57;;;;;;;-144.99;100.00;52570.38;5052420;28;20624;-74
2021/01/12 09:09:08;;;;;;;3.43;1.40;;;;;;;-144.99;100.00;52570.38;5051047;28;20678;-76
2021/01/12 09:11:39;;;;;;;5.93;1.93;;;;;;;-144.99;100.00;52623.38;5058522;28;20694;-77
2021/01/12 09:14:06;;;;;;;8.87;4.23;;;;;;;-144.99;100.00;52545.94;5074229;28;20627;-77
2021/01/12 09:16:33;;;;;;;6.27;1.47;;;;;;;-144.99;100.00;52545.94;5067024;28;20619;-76
2021/01/12 09:19:00;;;;;;;3.60;1.97;;;;;;;-144.99;100.00;52574.47;5052233;28;20991;-75
2021/01/12 09:21:27;;;;;;;6.00;2.73;;;;;;;-144.99;100.00;52566.31;5073845;28;20668;-76
2021/01/12 09:23:54;;;;;;;4.30;1.80;;;;;;;-144.99;100.00;52554.09;5062702;28;20616;-76
2021/01/12 09:26:22;;;;;;;5.73;1.77;;;;;;;-144.99;100.00;52527.59;5054664;28;20632;-78
2021/01/12 09:28:49;;;;;;;6.90;1.03;;;;;;;-144.99;100.00;52517.41;5053060;28;20678;-76
2021/01/12 09:31:17;;;;;;;3.50;1.50;;;;;;;-144.99;100.00;52529.63;5072017;28;20725;-74
2021/01/12 09:33:45;;;;;;;2.87;1.50;;;;;;;-144.99;100.00;52545.94;5056300;28;20619;-74
2021/01/12 09:36:14;;;;;;;7.83;1.60;;;;;;;-144.99;100.00;52525.56;5050821;28;20659;-76
2021/01/12 09:38:42;;;;;;;4.93;1.80;;;;;;;-144.99;100.00;52488.84;5050336;28;20750;-73
2021/01/12 09:41:10;;;;;;;5.20;0.97;;;;;;;-144.99;100.00;52554.09;5069100;28;20208;-76
2021/01/12 09:43:37;;;;;;;1.77;0.90;;;;;;;-144.99;100.00;52509.25;5053788;28;20213;-76
2021/01/12 09:46:04;;;;;;;1.20;0.70;;;;;;;-144.99;100.00;52484.78;5063354;28;20224;-74
2021/01/12 09:48:31;;;;;;;2.20;0.87;;;;;;;-144.99;100.00;52525.56;5068791;28;20737;-74
2021/01/12 09:50:57;;;;;;;5.20;2.47;;;;;;;-144.99;100.00;52484.78;5069937;28;20232;-75
2021/01/12 09:53:23;;;;;;;4.33;1.20;;;;;;;-144.99;99.37;52482.75;5069451;28;20240;-75
2021/01/12 09:55:51;;;;;;;4.13;1.60;;;;;;;-144.99;97.07;52505.16;5070308;28;20590;-75
2021/01/12 09:58:17;;;;;;;5.63;1.23;;;;;;;-144.99;94.90;52509.25;5056586;28;20228;-75
2021/01/12 10:00:43;;;;;;;8.67;0.77;;;;;;;-144.99;91.95;52444.03;5059404;28;20278;-74
2021/01/12 10:03:10;;;;;;;7.80;1.67;;;;;;;-144.99;89.67;52419.56;5049678;28;20209;-76
2021/01/12 10:05:37;;;;;;;3.07;1.00;;;;;;;-144.99;86.84;52464.41;5048354;28;20225;-76
2021/01/12 10:08:03;;;;;;;3.53;0.90;;;;;;;-144.99;84.27;52446.06;5069273;28;20656;-75
2021/01/12 10:10:30;;;;;;;3.47;0.90;;;;;;;-144.99;79.16;52448.09;5058494;28;20205;-75
2021/01/12 10:12:57;;;;;;;7.10;1.67;;;;;;;-144.99;77.35;52439.94;5053845;28;20640;-75
2021/01/12 10:15:23;;;;;;;7.83;1.23;;;;;;;-144.99;70.66;52439.94;5051480;28;20228;-75
2021/01/12 10:17:50;;;;;;;3.97;1.17;;;;;;;-144.99;66.70;52474.59;5049604;28;20216;-75
2021/01/12 10:20:16;;;;;;;5.37;1.17;;;;;;;-144.99;63.85;52448.09;5049759;28;20209;-76
2021/01/12 10:22:43;;;;;;;4.27;1.57;;;;;;;-144.99;63.37;52403.25;5071871;28;20628;-77
2021/01/12 10:25:10;;;;;;;4.37;1.20;;;;;;;-144.99;60.36;52382.88;5069461;28;20232;-74
2021/01/12 10:27:38;;;;;;;4.37;1.30;;;;;;;-144.99;58.52;52403.25;5056640;28;20204;-78
2021/01/12 10:30:06;;;;;;;8.27;1.40;;;;;;;-144.99;57.52;52399.19;5067979;28;20228;-75
2021/01/12 10:32:33;;;;;;;5.50;1.90;;;;;;;-144.99;55.22;52378.78;5055991;28;20210;-77
2021/01/12 10:34:59;;;;;;;13.17;2.93;;;;;;;-144.99;53.94;52354.34;5066094;28;20537;-77
2021/01/12 10:37:27;;;;;;;5.63;1.70;;;;;;;-144.99;53.69;52378.78;5067923;28;20667;-76
2021/01/12 10:39:54;;;;;;;5.97;2.50;;;;;;;-144.99;51.81;52342.09;5069524;28;20232;-78
2021/01/12 10:42:21;;;;;;;9.33;1.70;;;;;;;-144.99;50.65;52382.88;5062807;28;20364;-76
2021/01/12 10:44:47;;;;;;;6.27;2.13;;;;;;;-144.99;49.13;52370.63;5063554;28;20240;-77
2021/01/12 10:47:14;;;;;;;6.57;2.00;;;;;;;-144.99;49.07;52370.63;5063017;28;20646;-75
2021/01/12 10:49:41;;;;;;;5.70;1.77;;;;;;;-144.99;48.63;52342.09;5058321;28;20237;-80
2021/01/12 10:52:08;;;;;;;2.47;1.40;;;;;;;-144.99;47.08;52293.19;5069700;28;20205;-75
2021/01/12 10:54:35;;;;;;;2.57;1.17;;;;;;;-144.99;45.92;52299.31;5059466;28;20220;-78
2021/01/12 10:57:02;;;;;;;6.20;2.90;;;;;;;-144.99;45.63;52452.16;5053925;28;20288;-75
2021/01/12 10:59:29;;;;;;;15.10;4.03;;;;;;;-144.99;46.47;52407.31;5060632;28;20252;-77
2021/01/12 11:01:57;;;;;;;6.30;1.83;;;;;;;-144.99;47.86;52321.72;5052730;28;20225;-74
2021/01/12 11:04:25;;;;;;;6.87;1.87;;;;;;;-144.99;48.09;52366.56;5062598;28;20233;-77
2021/01/12 11:06:52;;;;;;;9.47;1.47;;;;;;;-144.99;48.37;52317.66;5051720;28;20205;-76
2021/01/12 11:09:22;;;;;;;5.37;1.57;;;;;;;-144.99;45.71;52309.50;5058089;28;20281;-77
2021/01/12 11:11:49;;;;;;;7.37;2.07;;;;;;;-144.99;44.36;52301.34;5049668;28;20269;-77